createdAt,value
2023-02-19T00:02:29.649Z,100422.12
2023-02-19T00:05:31.259Z,100420.37
2023-02-19T00:08:34.261Z,100429.44
2023-02-19T00:11:35.992Z,100423.44
2023-02-19T00:14:37.820Z,100416.50
2023-02-19T00:17:39.477Z,100422.47
2023-02-19T00:20:41.131Z,100430.34
2023-02-19T00:23:43.017Z,100435.69
2023-02-19T00:26:45.715Z,100444.31
2023-02-19T00:29:47.347Z,100441.00
2023-02-19T00:32:52.148Z,100443.16
2023-02-19T00:35:53.779Z,100444.56
2023-02-19T00:38:55.535Z,100455.97
2023-02-19T00:41:57.238Z,100451.25
2023-02-19T00:44:58.887Z,100466.09
2023-02-19T00:48:00.563Z,100459.09
2023-02-19T00:51:02.207Z,100473.81
2023-02-19T00:54:05.090Z,100469.50
2023-02-19T00:57:06.742Z,100473.88
2023-02-19T01:00:09.189Z,100473.38
2023-02-19T01:03:10.876Z,100481.84
2023-02-19T01:06:14.859Z,100472.69
2023-02-19T01:09:16.544Z,100472.03
2023-02-19T01:12:18.169Z,100467.44
2023-02-19T01:15:19.835Z,100457.31
2023-02-19T01:18:21.465Z,100462.81
2023-02-19T01:21:25.731Z,100460.47
2023-02-19T01:24:27.388Z,100454.59
2023-02-19T01:27:29.051Z,100452.03
2023-02-19T01:30:30.840Z,100454.37
2023-02-19T01:33:33.570Z,100442.53
2023-02-19T01:36:35.331Z,100455.91
2023-02-19T01:39:36.996Z,100451.06
2023-02-19T01:42:43.701Z,100456.03
2023-02-19T01:45:46.364Z,100452.03
2023-02-19T01:48:48.017Z,100452.53
2023-02-19T01:51:57.088Z,100455.13
2023-02-19T01:55:00.647Z,100448.53
2023-02-19T01:58:03.496Z,100449.56
2023-02-19T02:01:08.441Z,100449.44
2023-02-19T02:04:13.621Z,100452.19
2023-02-19T02:07:33.643Z,100459.28
2023-02-19T02:10:35.389Z,100458.44
2023-02-19T02:13:38.894Z,100450.34
2023-02-19T02:16:49.222Z,100449.12
2023-02-19T02:20:15.196Z,100447.19
2023-02-19T02:23:28.972Z,100434.50
2023-02-19T02:26:55.333Z,100435.50
2023-02-19T02:30:03.163Z,100450.97
2023-02-19T02:33:43.496Z,100440.91
2023-02-19T02:36:49.920Z,100426.97
2023-02-19T02:39:53.715Z,100428.28
2023-02-19T02:42:58.520Z,100441.50
2023-02-19T02:46:00.365Z,100439.53
2023-02-19T02:49:19.475Z,100435.59
2023-02-19T02:52:40.558Z,100448.06
2023-02-19T02:55:47.293Z,100453.34
2023-02-19T02:58:51.028Z,100452.00
2023-02-19T03:02:14.275Z,100446.94
2023-02-19T03:05:39.324Z,100457.22
2023-02-19T03:08:50.879Z,100446.44
2023-02-19T03:12:12.581Z,100451.97
2023-02-19T03:15:35.766Z,100446.06
2023-02-19T03:19:00.278Z,100453.78
2023-02-19T03:22:10.327Z,100443.78
2023-02-19T03:25:42.136Z,100438.47
2023-02-19T03:29:05.984Z,100445.03
2023-02-19T03:32:36.462Z,100454.09
2023-02-19T03:36:00.792Z,100452.53
2023-02-19T03:39:08.318Z,100457.72
2023-02-19T03:42:17.116Z,100461.78
2023-02-19T03:45:44.077Z,100465.50
2023-02-19T03:48:57.359Z,100469.44
2023-02-19T03:52:11.836Z,100467.19
2023-02-19T03:55:19.497Z,100455.41
2023-02-19T03:58:29.045Z,100452.47
2023-02-19T04:01:36.977Z,100446.38
2023-02-19T04:04:45.748Z,100438.34
2023-02-19T04:07:52.197Z,100442.06
2023-02-19T04:10:55.369Z,100436.59
2023-02-19T04:14:06.512Z,100425.66
2023-02-19T04:17:20.075Z,100442.12
2023-02-19T04:20:24.469Z,100453.31
2023-02-19T04:23:30.400Z,100446.22
2023-02-19T04:26:33.861Z,100444.44
2023-02-19T04:29:36.663Z,100440.44
2023-02-19T04:32:39.893Z,100443.41
2023-02-19T04:35:41.733Z,100449.84
2023-02-19T04:38:43.398Z,100446.16
2023-02-19T04:41:45.122Z,100447.97
2023-02-19T04:44:46.801Z,100442.72
2023-02-19T04:47:48.483Z,100436.75
2023-02-19T04:50:50.152Z,100440.47
2023-02-19T04:53:51.876Z,100446.19
2023-02-19T04:56:53.617Z,100447.47
2023-02-19T04:59:55.317Z,100455.22
2023-02-19T05:02:57.018Z,100446.78
2023-02-19T05:06:02.729Z,100452.34
2023-02-19T05:09:04.389Z,100460.28
2023-02-19T05:12:06.256Z,100466.63
2023-02-19T05:15:08.069Z,100460.41
2023-02-19T05:18:09.743Z,100464.44
2023-02-19T05:21:12.713Z,100460.28
2023-02-19T05:24:14.728Z,100458.66
2023-02-19T05:27:16.438Z,100444.31
2023-02-19T05:30:18.200Z,100445.09
2023-02-19T05:33:23.756Z,100436.28
2023-02-19T05:36:25.403Z,100451.41
2023-02-19T05:39:27.120Z,100455.84
2023-02-19T05:42:28.810Z,100457.81
2023-02-19T05:45:30.954Z,100455.22
2023-02-19T05:48:33.722Z,100461.72
2023-02-19T05:51:35.412Z,100456.38
2023-02-19T05:54:37.063Z,100458.94
2023-02-19T05:57:43.744Z,100464.81
2023-02-19T06:00:45.558Z,100455.88
2023-02-19T06:03:47.614Z,100453.97
2023-02-19T06:06:49.448Z,100458.41
2023-02-19T06:09:51.556Z,100459.38
2023-02-19T06:12:53.745Z,100452.44
2023-02-19T06:15:55.514Z,100454.84
2023-02-19T06:18:57.185Z,100463.59
2023-02-19T06:21:58.912Z,100458.66
2023-02-19T06:25:00.555Z,100465.59
2023-02-19T06:28:02.264Z,100465.59
2023-02-19T06:31:05.362Z,100482.31
2023-02-19T06:34:07.028Z,100481.59
2023-02-19T06:37:08.746Z,100473.81
2023-02-19T06:40:10.644Z,100479.44
2023-02-19T06:43:12.349Z,100480.75
2023-02-19T06:46:14.462Z,100476.91
2023-02-19T06:49:16.794Z,100486.41
2023-02-19T06:52:18.497Z,100476.22
2023-02-19T06:55:20.129Z,100466.94
2023-02-19T06:58:21.823Z,100461.66
2023-02-19T07:01:24.458Z,100441.44
2023-02-19T07:04:26.150Z,100450.09
2023-02-19T07:07:27.841Z,100446.72
2023-02-19T07:10:29.542Z,100453.63
2023-02-19T07:13:31.289Z,100442.66
2023-02-19T07:16:33.291Z,100444.75
2023-02-19T07:19:34.958Z,100446.31
2023-02-19T07:22:36.588Z,100451.69
2023-02-19T07:25:38.970Z,100444.75
2023-02-19T07:28:41.692Z,100448.25
2023-02-19T07:31:43.439Z,100445.66
2023-02-19T07:34:45.078Z,100445.78
2023-02-19T07:37:46.738Z,100455.28
2023-02-19T07:40:56.458Z,100462.38
2023-02-19T07:43:58.201Z,100455.13
2023-02-19T07:46:59.896Z,100460.25
2023-02-19T07:50:01.609Z,100443.38
2023-02-19T07:53:03.318Z,100441.00
2023-02-19T07:56:07.050Z,100448.69
2023-02-19T07:59:08.745Z,100436.87
2023-02-19T08:02:38.971Z,100432.72
2023-02-19T08:05:42.491Z,100435.00
2023-02-19T08:08:44.147Z,100420.16
2023-02-19T08:12:04.070Z,100408.50
2023-02-19T08:15:05.809Z,100408.84
2023-02-19T08:18:08.718Z,100412.41
2023-02-19T08:21:10.922Z,100410.37
2023-02-19T08:24:12.913Z,100411.56
2023-02-19T08:27:14.551Z,100417.75
2023-02-19T08:30:16.270Z,100424.81
2023-02-19T08:33:20.906Z,100445.03
2023-02-19T08:36:22.565Z,100437.53
2023-02-19T08:39:24.352Z,100437.22
2023-02-19T08:42:25.985Z,100440.37
2023-02-19T08:45:27.651Z,100433.66
2023-02-19T08:48:29.421Z,100436.94
2023-02-19T08:51:31.115Z,100440.22
2023-02-19T08:54:32.819Z,100443.16
2023-02-19T08:57:40.102Z,100450.28
2023-02-19T09:00:41.777Z,100449.75
2023-02-19T09:03:43.812Z,100445.78
2023-02-19T09:06:45.523Z,100450.75
2023-02-19T09:09:47.197Z,100454.50
2023-02-19T09:12:48.900Z,100455.84
2023-02-19T09:15:50.623Z,100446.56
2023-02-19T09:18:52.400Z,100451.50
2023-02-19T09:21:54.196Z,100451.31
2023-02-19T09:24:55.844Z,100443.63
2023-02-19T09:27:57.627Z,100438.88
2023-02-19T09:31:08.606Z,100424.38
2023-02-19T09:34:11.841Z,100429.59
2023-02-19T09:37:13.555Z,100438.59
2023-02-19T09:40:21.462Z,100430.63
2023-02-19T09:43:26.538Z,100431.72
2023-02-19T09:46:30.877Z,100435.72
2023-02-19T09:49:37.946Z,100427.34
2023-02-19T09:52:42.916Z,100424.84
2023-02-19T09:55:45.281Z,100423.44
2023-02-19T09:58:50.444Z,100432.28
2023-02-19T10:02:03.044Z,100416.50
2023-02-19T10:05:13.670Z,100420.44
2023-02-19T10:08:20.227Z,100427.22
2023-02-19T10:11:25.533Z,100426.38
2023-02-19T10:14:58.423Z,100429.59
2023-02-19T10:18:04.466Z,100422.56
2023-02-19T10:21:06.825Z,100414.62
2023-02-19T10:24:14.966Z,100411.75
2023-02-19T10:27:16.915Z,100409.75
2023-02-19T10:30:25.728Z,100390.13
2023-02-19T10:33:28.484Z,100395.59
2023-02-19T10:36:37.343Z,100381.19
2023-02-19T10:39:43.045Z,100364.28
2023-02-19T10:42:47.697Z,100351.12
2023-02-19T10:45:51.373Z,100355.16
2023-02-19T10:48:57.216Z,100334.84
2023-02-19T10:52:20.366Z,100328.28
2023-02-19T10:55:31.749Z,100329.25
2023-02-19T10:58:40.472Z,100320.84
2023-02-19T11:02:01.672Z,100312.78
2023-02-19T11:05:09.324Z,100319.84
2023-02-19T11:08:22.097Z,100305.72
2023-02-19T11:11:37.337Z,100303.34
2023-02-19T11:14:43.272Z,100305.47
2023-02-19T11:17:45.587Z,100297.44
2023-02-19T11:20:57.493Z,100304.34
2023-02-19T11:24:04.666Z,100299.47
2023-02-19T11:27:17.552Z,100290.38
2023-02-19T11:30:35.268Z,100294.13
2023-02-19T11:33:44.784Z,100288.66
2023-02-19T11:36:47.558Z,100286.56
2023-02-19T11:39:51.553Z,100274.25
2023-02-19T11:43:21.549Z,100273.31
2023-02-19T11:46:55.456Z,100260.69
2023-02-19T11:50:13.678Z,100242.88
2023-02-19T11:53:29.019Z,100234.44
2023-02-19T11:56:39.099Z,100232.63
2023-02-19T12:00:12.886Z,100230.47
2023-02-19T12:04:02.425Z,100224.50
2023-02-19T12:07:27.054Z,100219.97
2023-02-19T12:10:45.467Z,100218.50
2023-02-19T12:14:07.244Z,100213.47
2023-02-19T12:17:27.327Z,100211.84
2023-02-19T12:20:44.148Z,100199.81
2023-02-19T12:24:19.945Z,100191.41
2023-02-19T12:27:40.623Z,100194.66
2023-02-19T12:30:55.036Z,100194.44
2023-02-19T12:34:18.508Z,100190.31
2023-02-19T12:37:47.708Z,100179.87
2023-02-19T12:41:04.191Z,100178.91
2023-02-19T12:44:28.145Z,100156.13
2023-02-19T12:47:37.234Z,100159.88
2023-02-19T12:50:40.889Z,100157.34
2023-02-19T12:53:51.244Z,100161.81
2023-02-19T12:57:12.256Z,100162.63
2023-02-19T13:00:31.558Z,100166.13
2023-02-19T13:04:05.806Z,100141.69
2023-02-19T13:07:16.252Z,100154.75
2023-02-19T13:10:41.685Z,100161.09
2023-02-19T13:14:00.143Z,100138.16
2023-02-19T13:17:13.611Z,100146.09
2023-02-19T13:20:23.892Z,100155.22
2023-02-19T13:23:49.866Z,100150.03
2023-02-19T13:27:13.362Z,100154.69
2023-02-19T13:30:39.067Z,100153.91
2023-02-19T13:33:47.515Z,100153.34
2023-02-19T13:36:50.492Z,100144.63
2023-02-19T13:39:54.963Z,100164.38
2023-02-19T13:43:02.705Z,100160.94
2023-02-19T13:46:13.231Z,100160.28
2023-02-19T13:49:34.067Z,100154.53
2023-02-19T13:52:40.565Z,100156.06
2023-02-19T13:55:51.045Z,100154.91
2023-02-19T13:58:58.214Z,100148.38
2023-02-19T14:02:03.529Z,100142.53
2023-02-19T14:05:14.609Z,100141.91
2023-02-19T14:08:46.803Z,100154.59
2023-02-19T14:11:49.291Z,100156.91
2023-02-19T14:14:56.197Z,100149.84
2023-02-19T14:17:59.033Z,100153.16
2023-02-19T14:21:23.053Z,100164.66
2023-02-19T14:24:26.040Z,100163.31
2023-02-19T14:27:28.163Z,100165.28
2023-02-19T14:30:33.290Z,100164.38
2023-02-19T14:33:40.253Z,100175.03
2023-02-19T14:36:50.462Z,100182.38
2023-02-19T14:39:54.944Z,100193.56
2023-02-19T14:43:01.140Z,100199.78
2023-02-19T14:46:24.757Z,100206.66
2023-02-19T14:49:51.302Z,100209.06
2023-02-19T14:52:58.643Z,100206.00
2023-02-19T14:56:00.895Z,100207.41
2023-02-19T14:59:30.168Z,100210.66
2023-02-19T15:02:33.302Z,100216.69
2023-02-19T15:05:38.101Z,100223.47
2023-02-19T15:08:44.728Z,100222.44
2023-02-19T15:11:47.815Z,100240.59
2023-02-19T15:14:53.882Z,100238.19
2023-02-19T15:17:59.481Z,100251.19
2023-02-19T15:21:04.077Z,100259.31
2023-02-19T15:24:07.960Z,100270.56
2023-02-19T15:27:20.399Z,100280.22
2023-02-19T15:30:29.986Z,100281.16
2023-02-19T15:33:33.050Z,100292.50
2023-02-19T15:36:38.648Z,100311.81
2023-02-19T15:39:45.803Z,100304.84
2023-02-19T15:42:48.660Z,100312.41
2023-02-19T15:45:54.977Z,100302.25
2023-02-19T15:49:20.010Z,100302.69
2023-02-19T15:52:32.605Z,100308.31
2023-02-19T15:55:49.996Z,100310.44
2023-02-19T15:59:00.014Z,100318.97
2023-02-19T16:02:04.234Z,100319.59
2023-02-19T16:05:25.665Z,100322.59
2023-02-19T16:08:37.235Z,100334.72
2023-02-19T16:11:48.366Z,100329.91
2023-02-19T16:14:54.145Z,100332.13
2023-02-19T16:17:58.179Z,100325.34
2023-02-19T16:21:04.676Z,100319.97
2023-02-19T16:24:27.350Z,100317.06
2023-02-19T16:27:42.547Z,100326.59
2023-02-19T16:30:45.445Z,100321.28
2023-02-19T16:33:49.270Z,100326.88
2023-02-19T16:36:52.683Z,100322.44
2023-02-19T16:40:33.986Z,100329.78
2023-02-19T16:43:42.968Z,100324.84
2023-02-19T16:46:45.793Z,100335.16
2023-02-19T16:49:48.348Z,100342.69
2023-02-19T16:52:54.013Z,100346.13
2023-02-19T16:55:57.100Z,100349.41
2023-02-19T16:59:00.005Z,100363.97
2023-02-19T17:02:06.132Z,100368.12
2023-02-19T17:05:10.163Z,100368.16
2023-02-19T17:08:42.870Z,100376.44
2023-02-19T17:11:45.358Z,100383.25
2023-02-19T17:14:48.339Z,100381.53
2023-02-19T17:17:50.668Z,100372.66
2023-02-19T17:21:21.084Z,100362.06
2023-02-19T17:24:25.049Z,100374.31
2023-02-19T17:27:27.918Z,100374.16
2023-02-19T17:30:32.539Z,100387.84
2023-02-19T17:33:34.759Z,100389.84
2023-02-19T17:36:39.151Z,100390.06
2023-02-19T17:39:41.967Z,100407.28
2023-02-19T17:42:47.080Z,100401.16
2023-02-19T17:45:50.018Z,100408.78
2023-02-19T17:48:54.165Z,100416.53
2023-02-19T17:51:57.144Z,100411.44
2023-02-19T17:55:00.988Z,100410.50
2023-02-19T17:58:04.156Z,100412.69
2023-02-19T18:01:07.068Z,100413.03
2023-02-19T18:04:09.431Z,100401.94
2023-02-19T18:07:12.304Z,100419.13
2023-02-19T18:10:18.378Z,100431.31
2023-02-19T18:13:21.059Z,100433.53
2023-02-19T18:16:24.193Z,100444.44
2023-02-19T18:19:26.484Z,100457.25
2023-02-19T18:22:29.101Z,100454.66
2023-02-19T18:25:31.905Z,100467.53
2023-02-19T18:28:35.406Z,100481.59
2023-02-19T18:31:38.021Z,100485.75
2023-02-19T18:34:41.490Z,100488.88
2023-02-19T18:37:46.559Z,100489.56
2023-02-19T18:40:50.886Z,100478.19
2023-02-19T18:43:53.888Z,100500.88
2023-02-19T18:47:00.172Z,100511.28
2023-02-19T18:50:02.720Z,100517.25
2023-02-19T18:53:06.469Z,100512.38
2023-02-19T18:56:09.820Z,100518.25
2023-02-19T18:59:14.410Z,100518.19
2023-02-19T19:02:18.066Z,100524.94
2023-02-19T19:05:23.138Z,100537.41
2023-02-19T19:08:27.463Z,100543.28
2023-02-19T19:11:31.021Z,100563.88
2023-02-19T19:14:34.043Z,100558.41
2023-02-19T19:17:38.282Z,100560.09
2023-02-19T19:20:41.214Z,100562.37
2023-02-19T19:23:44.238Z,100561.00
2023-02-19T19:26:47.704Z,100563.22
2023-02-19T19:29:51.110Z,100568.00
2023-02-19T19:32:54.057Z,100566.84
2023-02-19T19:35:56.773Z,100575.19
2023-02-19T19:38:59.838Z,100578.09
2023-02-19T19:42:05.781Z,100580.38
2023-02-19T19:45:11.126Z,100603.31
2023-02-19T19:48:14.561Z,100601.00
2023-02-19T19:51:18.214Z,100608.09
2023-02-19T19:54:22.023Z,100621.38
2023-02-19T19:57:24.795Z,100615.00
2023-02-19T20:00:29.484Z,100625.34
2023-02-19T20:03:33.784Z,100632.16
2023-02-19T20:06:36.477Z,100630.31
2023-02-19T20:09:39.427Z,100640.37
2023-02-19T20:12:42.194Z,100640.44
2023-02-19T20:15:44.800Z,100638.41
2023-02-19T20:18:47.465Z,100635.91
2023-02-19T20:21:54.005Z,100635.78
2023-02-19T20:24:56.854Z,100640.84
2023-02-19T20:27:59.755Z,100647.84
2023-02-19T20:31:02.891Z,100655.34
2023-02-19T20:34:07.222Z,100666.16
2023-02-19T20:37:10.899Z,100676.41
2023-02-19T20:40:14.799Z,100675.38
2023-02-19T20:43:18.423Z,100677.31
2023-02-19T20:46:21.315Z,100681.75
2023-02-19T20:49:26.691Z,100668.00
2023-02-19T20:52:29.613Z,100670.34
2023-02-19T20:55:36.336Z,100677.81
2023-02-19T20:58:43.614Z,100693.59
2023-02-19T21:01:47.886Z,100689.84
2023-02-19T21:04:50.894Z,100702.56
2023-02-19T21:07:55.667Z,100715.19
2023-02-19T21:10:58.884Z,100731.72
2023-02-19T21:14:01.688Z,100747.78
2023-02-19T21:17:04.652Z,100763.94
2023-02-19T21:20:08.217Z,100777.19
2023-02-19T21:23:10.741Z,100784.66
2023-02-19T21:26:13.420Z,100805.63
2023-02-19T21:29:19.340Z,100811.09
2023-02-19T21:32:26.998Z,100823.47
2023-02-19T21:35:29.479Z,100816.91
2023-02-19T21:38:32.681Z,100812.38
2023-02-19T21:41:34.838Z,100818.75
2023-02-19T21:44:36.760Z,100818.00
2023-02-19T21:47:39.170Z,100824.78
2023-02-19T21:50:48.183Z,100828.03
2023-02-19T21:53:50.326Z,100834.31
2023-02-19T21:56:53.892Z,100841.00
2023-02-19T21:59:55.630Z,100845.62
2023-02-19T22:02:57.572Z,100856.41
2023-02-19T22:06:02.331Z,100862.53
2023-02-19T22:09:04.116Z,100864.75
2023-02-19T22:12:05.910Z,100866.63
2023-02-19T22:15:07.971Z,100871.00
2023-02-19T22:18:09.632Z,100877.72
2023-02-19T22:21:11.335Z,100878.66
2023-02-19T22:24:18.482Z,100874.63
2023-02-19T22:27:20.207Z,100872.91
2023-02-19T22:30:22.194Z,100889.22
2023-02-19T22:33:23.881Z,100884.97
2023-02-19T22:36:28.447Z,100913.47
2023-02-19T22:39:30.271Z,100923.00
2023-02-19T22:42:31.963Z,100927.53
2023-02-19T22:45:33.647Z,100933.09
2023-02-19T22:48:35.304Z,100942.31
2023-02-19T22:51:37.069Z,100960.19
2023-02-19T22:54:39.491Z,100958.59
2023-02-19T22:57:41.163Z,100963.44
2023-02-19T23:00:42.822Z,100972.53
2023-02-19T23:03:46.797Z,100967.84
2023-02-19T23:06:48.660Z,100981.31
2023-02-19T23:09:50.336Z,100986.41
2023-02-19T23:12:51.990Z,100987.06
2023-02-19T23:15:53.684Z,100986.59
2023-02-19T23:18:55.594Z,100995.81
2023-02-19T23:21:57.391Z,101002.87
2023-02-19T23:24:59.026Z,101000.97
2023-02-19T23:28:00.796Z,101008.28
2023-02-19T23:31:02.660Z,101012.09
2023-02-19T23:34:04.362Z,101014.47
2023-02-19T23:37:06.729Z,101016.19
2023-02-19T23:40:08.883Z,101026.50
2023-02-19T23:43:10.533Z,101029.63
2023-02-19T23:46:17.641Z,101024.47
2023-02-19T23:49:19.797Z,101034.78
2023-02-19T23:52:21.624Z,101041.50
2023-02-19T23:55:23.401Z,101053.97
2023-02-19T23:58:25.075Z,101060.37
